createdAt,value
2022-08-16T00:03:36.721Z,9.00
2022-08-16T00:08:42.017Z,8.00
2022-08-16T00:13:54.202Z,7.80
2022-08-16T00:18:57.698Z,7.20
2022-08-16T00:24:04.502Z,9.00
2022-08-16T00:29:07.986Z,7.00
2022-08-16T00:34:18.479Z,8.00
2022-08-16T00:39:23.031Z,7.80
2022-08-16T00:44:31.945Z,8.00
2022-08-16T00:49:39.796Z,7.40
2022-08-16T00:54:49.145Z,8.40
2022-08-16T00:59:58.657Z,9.00
2022-08-16T01:05:11.313Z,10.80
2022-08-16T01:10:16.673Z,12.00
2022-08-16T01:15:19.902Z,13.80
2022-08-16T01:20:30.129Z,11.00
2022-08-16T01:25:37.117Z,10.20
2022-08-16T01:30:49.530Z,11.60
2022-08-16T01:35:56.190Z,11.00
2022-08-16T01:41:04.259Z,11.00
2022-08-16T01:46:29.875Z,11.60
2022-08-16T01:51:34.806Z,12.20
2022-08-16T01:56:44.921Z,13.00
2022-08-16T02:01:56.285Z,12.80
2022-08-16T02:07:08.694Z,11.20
2022-08-16T02:12:50.304Z,10.00
2022-08-16T02:17:39.964Z,11.40
2022-08-16T02:22:42.977Z,10.00
2022-08-16T02:27:51.713Z,10.00
2022-08-16T02:32:55.374Z,8.80
2022-08-16T02:38:01.842Z,10.60
2022-08-16T02:43:13.963Z,11.00
2022-08-16T02:48:29.550Z,11.40
2022-08-16T02:53:33.481Z,10.80
2022-08-16T02:58:37.841Z,10.40
2022-08-16T03:04:29.001Z,9.40
2022-08-16T03:09:09.751Z,10.60
2022-08-16T03:14:21.210Z,11.60
2022-08-16T03:19:48.798Z,11.00
2022-08-16T03:24:57.207Z,11.60
2022-08-16T03:30:16.026Z,13.00
2022-08-16T03:35:22.646Z,13.40
2022-08-16T03:40:32.946Z,12.20
2022-08-16T03:45:38.225Z,17.75
2022-08-16T03:50:44.324Z,17.50
2022-08-16T03:56:03.623Z,17.00
2022-08-16T04:01:07.824Z,18.00
2022-08-16T04:06:10.969Z,16.00
2022-08-16T04:11:16.435Z,16.50
2022-08-16T04:16:21.916Z,15.00
2022-08-16T04:21:30.871Z,16.00
2022-08-16T04:26:36.235Z,16.00
2022-08-16T04:31:40.646Z,15.50
2022-08-16T04:36:48.904Z,25.33
2022-08-16T04:41:57.100Z,22.00
2022-08-16T04:47:02.866Z,17.75
2022-08-16T04:52:33.349Z,16.00
2022-08-16T04:57:30.625Z,20.50
2022-08-16T05:02:41.649Z,22.00
2022-08-16T05:07:58.276Z,16.50
2022-08-16T05:13:03.802Z,14.60
2022-08-16T05:18:08.010Z,14.20
2022-08-16T05:23:31.725Z,13.80
2022-08-16T05:28:37.516Z,14.00
2022-08-16T05:33:44.368Z,14.80
2022-08-16T05:38:58.171Z,14.00
2022-08-16T05:44:05.353Z,14.00
2022-08-16T05:49:39.213Z,19.50
2022-08-16T05:54:47.783Z,31.00
2022-08-16T06:00:07.013Z,15.00
2022-08-16T06:05:22.594Z,13.80
2022-08-16T06:10:32.424Z,12.80
2022-08-16T06:15:39.050Z,13.20
2022-08-16T06:20:55.039Z,14.00
2022-08-16T06:26:00.417Z,12.60
2022-08-16T06:31:11.988Z,10.00
2022-08-16T06:36:20.943Z,12.80
2022-08-16T06:41:56.905Z,13.00
2022-08-16T06:47:41.929Z,14.75
2022-08-16T06:53:08.659Z,9.60
2022-08-16T06:58:21.703Z,10.20
2022-08-16T07:03:32.207Z,15.75
2022-08-16T07:08:38.344Z,11.20
2022-08-16T07:14:00.288Z,14.20
2022-08-16T07:19:09.694Z,12.40
2022-08-16T07:24:29.766Z,11.00
2022-08-16T07:29:37.500Z,13.20
2022-08-16T07:34:48.479Z,12.60
2022-08-16T07:39:54.992Z,10.60
2022-08-16T07:44:58.733Z,9.60
2022-08-16T07:50:05.435Z,10.00
2022-08-16T07:55:13.855Z,11.00
2022-08-16T08:00:18.731Z,11.00
2022-08-16T08:05:35.964Z,14.00
2022-08-16T08:10:42.218Z,10.80
2022-08-16T08:15:52.945Z,11.00
2022-08-16T08:20:59.354Z,10.80
2022-08-16T08:26:10.031Z,11.20
2022-08-16T08:31:20.501Z,12.80
2022-08-16T08:36:33.289Z,10.80
2022-08-16T08:41:42.426Z,9.60
2022-08-16T08:47:00.350Z,12.00
2022-08-16T08:52:07.958Z,11.80
2022-08-16T08:57:12.798Z,13.40
2022-08-16T09:02:52.591Z,11.00
2022-08-16T09:08:01.595Z,11.00
2022-08-16T09:13:21.148Z,11.00
2022-08-16T09:18:35.900Z,10.80
2022-08-16T09:23:41.067Z,10.20
2022-08-16T09:29:15.376Z,10.80
2022-08-16T09:34:12.964Z,10.00
2022-08-16T09:39:21.705Z,10.00
2022-08-16T09:45:11.181Z,9.60
2022-08-16T09:49:51.035Z,9.80
2022-08-16T09:54:54.637Z,8.80
2022-08-16T10:00:00.923Z,9.80
2022-08-16T10:05:15.090Z,8.60
2022-08-16T10:10:18.856Z,9.00
2022-08-16T10:15:35.119Z,7.80
2022-08-16T10:20:38.750Z,9.00
2022-08-16T10:27:19.780Z,9.60
2022-08-16T10:31:07.866Z,8.80
2022-08-16T10:36:38.786Z,8.20
2022-08-16T10:41:36.040Z,8.80
2022-08-16T10:46:42.258Z,9.00
2022-08-16T10:52:01.865Z,9.20
2022-08-16T10:57:06.493Z,8.40
2022-08-16T11:02:57.954Z,7.80
2022-08-16T11:07:42.954Z,8.60
2022-08-16T11:12:46.700Z,7.00
2022-08-16T11:18:48.481Z,7.00
2022-08-16T11:23:14.143Z,8.00
2022-08-16T11:33:59.383Z,7.00
2022-08-16T11:39:02.545Z,7.00
2022-08-16T11:44:06.451Z,7.40
2022-08-16T11:49:13.599Z,7.20
2022-08-16T11:54:21.160Z,7.00
2022-08-16T11:59:28.647Z,7.00
2022-08-16T12:04:34.003Z,7.00
2022-08-16T12:09:41.241Z,7.00
2022-08-16T12:14:46.046Z,7.60
2022-08-16T12:19:50.318Z,7.00
2022-08-16T12:24:53.351Z,7.00
2022-08-16T12:29:58.709Z,6.20
2022-08-16T12:35:03.378Z,7.20
2022-08-16T12:40:24.053Z,7.00
2022-08-16T12:45:29.386Z,5.80
2022-08-16T12:50:33.546Z,5.80
2022-08-16T12:55:41.880Z,7.00
2022-08-16T13:00:46.852Z,6.80
2022-08-16T13:05:55.197Z,7.40
2022-08-16T13:10:58.903Z,6.00
2022-08-16T13:16:10.733Z,6.20
2022-08-16T13:21:24.337Z,6.40
2022-08-16T13:26:29.123Z,6.00
2022-08-16T13:31:33.825Z,6.20
2022-08-16T13:36:48.788Z,7.00
2022-08-16T13:41:56.384Z,5.40
2022-08-16T13:46:59.290Z,4.80
2022-08-16T13:52:03.524Z,6.00
2022-08-16T13:57:06.661Z,4.60
2022-08-16T14:02:14.576Z,6.00
2022-08-16T14:07:20.026Z,6.20
2022-08-16T14:12:28.388Z,6.00
2022-08-16T14:18:15.931Z,6.20
2022-08-16T14:22:55.668Z,5.40
2022-08-16T14:27:58.430Z,6.00
2022-08-16T14:33:04.263Z,6.00
2022-08-16T14:38:10.851Z,5.60
2022-08-16T14:43:16.309Z,5.20
2022-08-16T14:48:26.087Z,5.00
2022-08-16T14:53:32.639Z,5.40
2022-08-16T14:58:38.019Z,5.60
2022-08-16T15:03:42.263Z,6.00
2022-08-16T15:08:48.718Z,5.80
2022-08-16T15:13:54.945Z,5.00
2022-08-16T15:18:59.091Z,5.00
2022-08-16T15:24:03.269Z,5.80
2022-08-16T15:29:08.408Z,5.00
2022-08-16T15:34:21.870Z,5.00
2022-08-16T15:39:38.898Z,5.00
2022-08-16T15:44:52.309Z,5.00
2022-08-16T15:49:57.885Z,5.00
2022-08-16T15:55:13.311Z,5.00
2022-08-16T16:00:27.532Z,4.60
2022-08-16T16:05:30.580Z,5.00
2022-08-16T16:10:37.319Z,5.00
2022-08-16T16:15:43.429Z,5.60
2022-08-16T16:20:48.089Z,4.00
2022-08-16T16:25:53.492Z,4.00
2022-08-16T16:30:56.626Z,4.00
2022-08-16T16:36:00.111Z,4.00
2022-08-16T16:41:08.895Z,4.00
2022-08-16T16:46:41.396Z,4.60
2022-08-16T16:51:40.950Z,4.00
2022-08-16T16:56:49.664Z,4.20
2022-08-16T17:02:00.211Z,4.00
2022-08-16T17:07:15.983Z,3.00
2022-08-16T17:12:25.076Z,4.00
2022-08-16T17:18:00.304Z,3.80
2022-08-16T17:23:04.882Z,3.80
2022-08-16T17:28:58.132Z,4.00
2022-08-16T17:33:37.282Z,5.00
2022-08-16T17:38:55.861Z,4.00
2022-08-16T17:44:01.020Z,4.00
2022-08-16T17:49:03.904Z,4.00
2022-08-16T17:54:06.819Z,3.00
2022-08-16T17:59:11.187Z,3.60
2022-08-16T18:04:14.046Z,3.80
2022-08-16T18:09:36.815Z,3.00
2022-08-16T18:14:51.042Z,3.20
2022-08-16T18:19:55.547Z,3.00
2022-08-16T18:24:58.293Z,4.00
2022-08-16T18:30:02.482Z,3.20
2022-08-16T18:35:05.819Z,3.00
2022-08-16T18:40:09.937Z,3.40
2022-08-16T18:45:14.397Z,4.00
2022-08-16T18:50:17.354Z,3.60
2022-08-16T18:55:20.706Z,4.20
2022-08-16T19:00:28.425Z,3.40
2022-08-16T19:05:31.857Z,3.00
2022-08-16T19:10:34.750Z,3.00
2022-08-16T19:15:39.165Z,3.00
2022-08-16T19:20:42.035Z,4.00
2022-08-16T19:25:49.535Z,4.00
2022-08-16T19:30:57.083Z,4.00
2022-08-16T19:35:59.849Z,5.00
2022-08-16T19:41:02.583Z,7.60
2022-08-16T19:46:07.291Z,7.60
2022-08-16T19:51:10.140Z,7.00
2022-08-16T19:56:13.180Z,6.00
2022-08-16T20:01:17.865Z,6.00
2022-08-16T20:06:38.086Z,6.40
2022-08-16T20:11:41.596Z,6.40
2022-08-16T20:16:46.692Z,7.00
2022-08-16T20:21:49.822Z,7.00
2022-08-16T20:26:52.599Z,6.60
2022-08-16T20:31:56.800Z,6.40
2022-08-16T20:36:59.609Z,8.40
2022-08-16T20:42:02.442Z,7.00
2022-08-16T20:47:07.111Z,9.00
2022-08-16T20:52:10.653Z,10.00
2022-08-16T20:57:13.573Z,9.80
2022-08-16T21:02:24.818Z,9.00
2022-08-16T21:07:27.582Z,11.80
2022-08-16T21:12:33.818Z,11.40
2022-08-16T21:17:41.830Z,10.80
2022-08-16T21:22:47.141Z,10.00
2022-08-16T21:28:41.272Z,10.60
2022-08-16T21:33:18.226Z,11.00
2022-08-16T21:38:28.612Z,10.60
2022-08-16T21:43:33.546Z,11.00
2022-08-16T21:48:40.508Z,11.80
2022-08-16T21:53:43.805Z,11.00
2022-08-16T21:58:46.580Z,9.40
2022-08-16T22:03:57.993Z,10.60
2022-08-16T22:09:19.815Z,10.60
2022-08-16T22:14:22.646Z,8.20
2022-08-16T22:19:26.847Z,10.00
2022-08-16T22:24:29.724Z,9.60
2022-08-16T22:29:32.480Z,10.00
2022-08-16T22:34:36.622Z,9.80
2022-08-16T22:39:39.472Z,9.40
2022-08-16T22:44:46.308Z,8.80
2022-08-16T22:49:50.746Z,8.00
2022-08-16T22:54:53.619Z,9.00
2022-08-16T22:59:56.353Z,10.00
2022-08-16T23:05:00.434Z,8.60
2022-08-16T23:10:03.208Z,8.80
2022-08-16T23:15:06.839Z,9.40
2022-08-16T23:20:12.527Z,9.80
2022-08-16T23:25:19.650Z,10.00
2022-08-16T23:30:22.555Z,8.40
2022-08-16T23:35:27.742Z,8.80
2022-08-16T23:40:48.376Z,8.20
2022-08-16T23:45:52.600Z,8.00
2022-08-16T23:50:56.993Z,8.00
2022-08-16T23:56:00.939Z,7.80
